Pagina principale
METAR-TAF:

METAR-TAF

Aeroporti :

Arar, Arabia Saudita

latitudine: 30-54N, longitudine: 041-08E, altezza: 555 m

Osservazione

Il bollettino è stato emesso 1 ora e 22 minuti fa, alle 04:00 UTC
Vento 10 kt da ovest
Temperature 13°C
Umidità 38%
Pressione 1014 hPa
Visibilità 10 km o più
nessuna nube inferiore a 1500 m e nessun cumulonembo

METAR: OERR 300400Z 27010KT CAVOK 13/M01 Q1014 NOSIG

Ora: 08:22 (05:22 UTC)

Previsione

Il bollettino è stato emesso 6 ore e 22 minuti fa, alle 23:00 UTC
Previsione valida dal 30 alle 00 UTC al 31 alle 06 UTC
Vento 6 kt da ovest con raffiche fino a 16 kt
Visibilità: 7000 m
Temporaneamente
dal 30 alle 06 UTC al 30 alle 16 UTC
Visibilità: 3500 m
polvere diffusa, Scaccia polvere alto

TAF: OERR 292300Z 3000/3106 28006G16KT 7000 NSC TEMPO 3006/3016 3500 DU BLDU

Osservazioni e previsioni meteorologiche di più di 4000 aeroporti (messaggi METAR e TAF).

Le stazioni disponibili sono rappresentate dai dischi gialli e rossi sulla carta.

Puntare il mouse per vedere il nome della stazione.

Clicca sopra per visualizzare le osservazioni e previsioni meteorologiche.

Per cambiare la mappa : fare clic sui pulsanti verdi con una croce nera per ingrandire, il pulsante verde con un trattino per diminuire, o sulla freccia verde per le mappe adiacenti.


METAR-TAF: